sensor_id;sensor_type;location;lat;lon;timestamp;pressure;altitude;pressure_sealevel;temperature;humidity
4410;BME280;2218;51.408;7.208;2023-05-18T00:01:58;100851.94;;;20.35;37.90
4410;BME280;2218;51.408;7.208;2023-05-18T00:04:26;100845.81;;;20.35;37.87
4410;BME280;2218;51.408;7.208;2023-05-18T00:06:54;100845.03;;;20.33;38.02
4410;BME280;2218;51.408;7.208;2023-05-18T00:09:23;100847.66;;;20.33;38.00
4410;BME280;2218;51.408;7.208;2023-05-18T00:11:52;100846.81;;;20.32;37.97
4410;BME280;2218;51.408;7.208;2023-05-18T00:14:19;100839.84;;;20.31;37.81
4410;BME280;2218;51.408;7.208;2023-05-18T00:16:47;100846.06;;;20.30;38.17
4410;BME280;2218;51.408;7.208;2023-05-18T00:19:15;100847.75;;;20.31;37.96
4410;BME280;2218;51.408;7.208;2023-05-18T00:21:42;100845.13;;;20.31;37.81
4410;BME280;2218;51.408;7.208;2023-05-18T00:24:11;100841.72;;;20.29;38.01
4410;BME280;2218;51.408;7.208;2023-05-18T00:26:39;100840.88;;;20.29;38.13
4410;BME280;2218;51.408;7.208;2023-05-18T00:29:09;100844.38;;;20.29;37.88
4410;BME280;2218;51.408;7.208;2023-05-18T00:31:37;100840.00;;;20.28;37.94
4410;BME280;2218;51.408;7.208;2023-05-18T00:34:06;100845.28;;;20.28;37.96
4410;BME280;2218;51.408;7.208;2023-05-18T00:36:35;100849.81;;;20.26;38.02
4410;BME280;2218;51.408;7.208;2023-05-18T00:39:03;100852.34;;;20.28;38.08
4410;BME280;2218;51.408;7.208;2023-05-18T00:41:32;100843.69;;;20.26;37.96
4410;BME280;2218;51.408;7.208;2023-05-18T00:43:59;100842.81;;;20.25;38.00
4410;BME280;2218;51.408;7.208;2023-05-18T00:46:28;100846.31;;;20.26;37.83
4410;BME280;2218;51.408;7.208;2023-05-18T00:48:56;100848.09;;;20.25;37.94
4410;BME280;2218;51.408;7.208;2023-05-18T00:51:24;100849.97;;;20.23;38.04
4410;BME280;2218;51.408;7.208;2023-05-18T00:53:53;100843.78;;;20.24;38.02
4410;BME280;2218;51.408;7.208;2023-05-18T00:56:22;100847.31;;;20.23;38.00
4410;BME280;2218;51.408;7.208;2023-05-18T00:58:51;100853.44;;;20.24;37.91
4410;BME280;2218;51.408;7.208;2023-05-18T01:01:25;100850.81;;;20.24;38.11
4410;BME280;2218;51.408;7.208;2023-05-18T01:03:56;100849.97;;;20.23;37.88
4410;BME280;2218;51.408;7.208;2023-05-18T01:06:27;100849.97;;;20.23;38.19
4410;BME280;2218;51.408;7.208;2023-05-18T01:08:57;100848.28;;;20.22;38.04
4410;BME280;2218;51.408;7.208;2023-05-18T01:11:39;100850.06;;;20.22;37.98
4410;BME280;2218;51.408;7.208;2023-05-18T01:14:17;100846.56;;;20.21;38.12
4410;BME280;2218;51.408;7.208;2023-05-18T01:16:54;100844.03;;;20.20;38.20
4410;BME280;2218;51.408;7.208;2023-05-18T01:19:59;100848.47;;;20.19;37.98
4410;BME280;2218;51.408;7.208;2023-05-18T01:22:49;100850.16;;;20.20;38.12
4410;BME280;2218;51.408;7.208;2023-05-18T01:25:33;100848.47;;;20.19;37.93
4410;BME280;2218;51.408;7.208;2023-05-18T01:28:13;100844.94;;;20.19;38.00
4410;BME280;2218;51.408;7.208;2023-05-18T01:30:42;100848.47;;;20.19;38.16
4410;BME280;2218;51.408;7.208;2023-05-18T01:33:12;100844.94;;;20.19;38.06
4410;BME280;2218;51.408;7.208;2023-05-18T01:35:39;100852.94;;;20.17;38.15
4410;BME280;2218;51.408;7.208;2023-05-18T01:38:13;100856.53;;;20.16;38.22
4410;BME280;2218;51.408;7.208;2023-05-18T01:40:51;100852.94;;;20.17;38.11
4410;BME280;2218;51.408;7.208;2023-05-18T01:43:28;100858.22;;;20.17;38.16
4410;BME280;2218;51.408;7.208;2023-05-18T01:46:04;100853.03;;;20.16;38.15
4410;BME280;2218;51.408;7.208;2023-05-18T01:48:37;100854.84;;;20.15;38.07
4410;BME280;2218;51.408;7.208;2023-05-18T01:51:07;100854.00;;;20.14;38.11
4410;BME280;2218;51.408;7.208;2023-05-18T01:53:42;100847.84;;;20.14;38.05
4410;BME280;2218;51.408;7.208;2023-05-18T01:56:12;100847.75;;;20.16;37.99
4410;BME280;2218;51.408;7.208;2023-05-18T01:58:42;100853.13;;;20.14;38.22
4410;BME280;2218;51.408;7.208;2023-05-18T02:01:09;100850.50;;;20.14;38.05
4410;BME280;2218;51.408;7.208;2023-05-18T02:03:36;100846.13;;;20.13;38.19
4410;BME280;2218;51.408;7.208;2023-05-18T02:06:03;100840.09;;;20.11;38.18
4410;BME280;2218;51.408;7.208;2023-05-18T02:08:30;100844.44;;;20.12;38.30
4410;BME280;2218;51.408;7.208;2023-05-18T02:10:58;100845.38;;;20.11;38.20
4410;BME280;2218;51.408;7.208;2023-05-18T02:13:25;100846.31;;;20.10;38.08
4410;BME280;2218;51.408;7.208;2023-05-18T02:15:53;100849.81;;;20.10;38.10
4410;BME280;2218;51.408;7.208;2023-05-18T02:18:20;100853.28;;;20.11;38.25
4410;BME280;2218;51.408;7.208;2023-05-18T02:20:48;100857.72;;;20.10;38.26
4410;BME280;2218;51.408;7.208;2023-05-18T02:23:15;100853.28;;;20.11;38.36
4410;BME280;2218;51.408;7.208;2023-05-18T02:25:43;100853.19;;;20.12;38.39
4410;BME280;2218;51.408;7.208;2023-05-18T02:28:12;100854.00;;;20.14;38.24
4410;BME280;2218;51.408;7.208;2023-05-18T02:30:39;100854.84;;;20.15;38.27
4410;BME280;2218;51.408;7.208;2023-05-18T02:33:07;100849.56;;;20.15;38.27
4410;BME280;2218;51.408;7.208;2023-05-18T02:35:35;100851.25;;;20.16;38.12
4410;BME280;2218;51.408;7.208;2023-05-18T02:38:02;100853.03;;;20.16;38.14
4410;BME280;2218;51.408;7.208;2023-05-18T02:40:29;100857.38;;;20.17;38.19
4410;BME280;2218;51.408;7.208;2023-05-18T02:42:56;100853.88;;;20.16;38.24
4410;BME280;2218;51.408;7.208;2023-05-18T02:45:24;100860.13;;;20.15;38.24
4410;BME280;2218;51.408;7.208;2023-05-18T02:47:51;100855.69;;;20.16;38.19
4410;BME280;2218;51.408;7.208;2023-05-18T02:50:20;100856.53;;;20.16;38.22
4410;BME280;2218;51.408;7.208;2023-05-18T02:52:47;100860.13;;;20.15;38.26
4410;BME280;2218;51.408;7.208;2023-05-18T02:55:15;100856.63;;;20.14;38.10
4410;BME280;2218;51.408;7.208;2023-05-18T02:57:54;100870.66;;;20.15;38.19
4410;BME280;2218;51.408;7.208;2023-05-18T03:00:27;100860.97;;;20.16;38.24
4410;BME280;2218;51.408;7.208;2023-05-18T03:02:55;100857.53;;;20.13;38.32
4410;BME280;2218;51.408;7.208;2023-05-18T03:05:26;100860.13;;;20.15;38.28
4410;BME280;2218;51.408;7.208;2023-05-18T03:07:53;100867.19;;;20.14;38.03
4410;BME280;2218;51.408;7.208;2023-05-18T03:10:21;100869.81;;;20.14;38.31
4410;BME280;2218;51.408;7.208;2023-05-18T03:12:48;100869.81;;;20.14;38.34
4410;BME280;2218;51.408;7.208;2023-05-18T03:15:15;100867.25;;;20.13;38.24
4410;BME280;2218;51.408;7.208;2023-05-18T03:17:42;100862.81;;;20.13;38.27
4410;BME280;2218;51.408;7.208;2023-05-18T03:20:10;100866.41;;;20.12;38.27
4410;BME280;2218;51.408;7.208;2023-05-18T03:22:41;100865.44;;;20.13;38.30
4410;BME280;2218;51.408;7.208;2023-05-18T03:25:08;100872.53;;;20.13;38.32
4410;BME280;2218;51.408;7.208;2023-05-18T03:27:35;100867.25;;;20.13;38.26
4410;BME280;2218;51.408;7.208;2023-05-18T03:30:04;100866.41;;;20.12;38.28
4410;BME280;2218;51.408;7.208;2023-05-18T03:32:31;100866.34;;;20.14;38.20
4410;BME280;2218;51.408;7.208;2023-05-18T03:34:59;100867.25;;;20.13;38.12
4410;BME280;2218;51.408;7.208;2023-05-18T03:37:26;100870.81;;;20.12;38.26
4410;BME280;2218;51.408;7.208;2023-05-18T03:40:06;100868.09;;;20.13;38.25
4410;BME280;2218;51.408;7.208;2023-05-18T03:42:35;100855.84;;;20.12;38.12
4410;BME280;2218;51.408;7.208;2023-05-18T03:45:03;100861.13;;;20.12;38.34
4410;BME280;2218;51.408;7.208;2023-05-18T03:47:30;100872.53;;;20.13;38.29
4410;BME280;2218;51.408;7.208;2023-05-18T03:49:56;100871.69;;;20.12;38.20
4410;BME280;2218;51.408;7.208;2023-05-18T03:52:23;100870.81;;;20.12;38.10
4410;BME280;2218;51.408;7.208;2023-05-18T03:54:51;100867.25;;;20.13;38.13
4410;BME280;2218;51.408;7.208;2023-05-18T03:57:19;100867.25;;;20.13;38.14
4410;BME280;2218;51.408;7.208;2023-05-18T03:59:46;100868.09;;;20.13;38.04
4410;BME280;2218;51.408;7.208;2023-05-18T04:02:13;100874.25;;;20.14;38.18
4410;BME280;2218;51.408;7.208;2023-05-18T04:04:41;100873.38;;;20.13;38.18
4410;BME280;2218;51.408;7.208;2023-05-18T04:07:11;100868.97;;;20.14;38.16
4410;BME280;2218;51.408;7.208;2023-05-18T04:09:38;100869.81;;;20.14;38.15
4410;BME280;2218;51.408;7.208;2023-05-18T04:12:06;100871.53;;;20.16;38.08
4410;BME280;2218;51.408;7.208;2023-05-18T04:14:35;100870.66;;;20.15;38.12
4410;BME280;2218;51.408;7.208;2023-05-18T04:17:02;100873.31;;;20.15;38.01
4410;BME280;2218;51.408;7.208;2023-05-18T04:19:31;100882.94;;;20.16;38.19
4410;BME280;2218;51.408;7.208;2023-05-18T04:21:58;100880.28;;;20.16;38.00
4410;BME280;2218;51.408;7.208;2023-05-18T04:24:29;100876.78;;;20.16;38.29
4410;BME280;2218;51.408;7.208;2023-05-18T04:26:57;100878.50;;;20.17;38.20
4410;BME280;2218;51.408;7.208;2023-05-18T04:29:25;100886.50;;;20.15;38.17
4410;BME280;2218;51.408;7.208;2023-05-18T04:31:55;100883.78;;;20.17;38.35
4410;BME280;2218;51.408;7.208;2023-05-18T04:34:24;100884.63;;;20.17;38.21
4410;BME280;2218;51.408;7.208;2023-05-18T04:36:52;100887.25;;;20.17;38.04
4410;BME280;2218;51.408;7.208;2023-05-18T04:39:20;100894.25;;;20.18;38.12
4410;BME280;2218;51.408;7.208;2023-05-18T04:41:48;100893.47;;;20.16;38.16
4410;BME280;2218;51.408;7.208;2023-05-18T04:44:15;100895.19;;;20.17;38.24
4410;BME280;2218;51.408;7.208;2023-05-18T04:46:43;100896.03;;;20.18;38.15
4410;BME280;2218;51.408;7.208;2023-05-18T04:49:13;100902.16;;;20.18;38.30
4410;BME280;2218;51.408;7.208;2023-05-18T04:51:40;100896.88;;;20.18;38.04
4410;BME280;2218;51.408;7.208;2023-05-18T04:54:08;100892.53;;;20.17;38.06
4410;BME280;2218;51.408;7.208;2023-05-18T04:56:35;100891.59;;;20.18;38.15
4410;BME280;2218;51.408;7.208;2023-05-18T04:59:02;100888.97;;;20.18;38.28
4410;BME280;2218;51.408;7.208;2023-05-18T05:01:28;100895.97;;;20.19;38.14
4410;BME280;2218;51.408;7.208;2023-05-18T05:03:55;100900.31;;;20.20;38.25
4410;BME280;2218;51.408;7.208;2023-05-18T05:06:24;100900.97;;;20.24;38.06
4410;BME280;2218;51.408;7.208;2023-05-18T05:08:51;100886.59;;;20.29;37.99
4410;BME280;2218;51.408;7.208;2023-05-18T05:11:18;100893.34;;;20.35;38.00
4410;BME280;2218;51.408;7.208;2023-05-18T05:13:46;100894.59;;;20.44;37.62
4410;BME280;2218;51.408;7.208;2023-05-18T05:16:13;100896.94;;;20.50;37.63
4410;BME280;2218;51.408;7.208;2023-05-18T05:18:39;100903.69;;;20.55;37.71
4410;BME280;2218;51.408;7.208;2023-05-18T05:21:08;100902.56;;;20.59;37.53
4410;BME280;2218;51.408;7.208;2023-05-18T05:23:36;100899.59;;;20.65;37.26
4410;BME280;2218;51.408;7.208;2023-05-18T05:26:04;100900.16;;;20.71;37.31
4410;BME280;2218;51.408;7.208;2023-05-18T05:28:31;100904.25;;;20.76;37.07
4410;BME280;2218;51.408;7.208;2023-05-18T05:30:59;100904.84;;;20.81;36.76
4410;BME280;2218;51.408;7.208;2023-05-18T05:33:26;100905.44;;;20.86;36.99
4410;BME280;2218;51.408;7.208;2023-05-18T05:35:53;100905.06;;;20.92;37.06
4410;BME280;2218;51.408;7.208;2023-05-18T05:38:20;100899.47;;;20.99;37.12
4410;BME280;2218;51.408;7.208;2023-05-18T05:40:48;100897.56;;;21.01;37.28
4410;BME280;2218;51.408;7.208;2023-05-18T05:43:15;100901.63;;;21.06;37.07
4410;BME280;2218;51.408;7.208;2023-05-18T05:45:44;100897.03;;;21.10;36.85
4410;BME280;2218;51.408;7.208;2023-05-18T05:48:11;100893.28;;;21.14;36.86
4410;BME280;2218;51.408;7.208;2023-05-18T05:50:38;100899.22;;;21.17;36.80
4410;BME280;2218;51.408;7.208;2023-05-18T05:53:05;100900.84;;;21.20;37.08
4410;BME280;2218;51.408;7.208;2023-05-18T05:55:35;100900.56;;;21.25;36.83
4410;BME280;2218;51.408;7.208;2023-05-18T05:58:10;100897.84;;;21.26;37.26
4410;BME280;2218;51.408;7.208;2023-05-18T06:00:37;100900.31;;;21.29;37.04
4410;BME280;2218;51.408;7.208;2023-05-18T06:03:04;100913.38;;;21.32;36.85
4410;BME280;2218;51.408;7.208;2023-05-18T06:05:40;100914.88;;;21.36;37.13
4410;BME280;2218;51.408;7.208;2023-05-18T06:08:09;100914.72;;;21.39;36.89
4410;BME280;2218;51.408;7.208;2023-05-18T06:10:37;100911.97;;;21.41;36.79
4410;BME280;2218;51.408;7.208;2023-05-18T06:13:05;100921.53;;;21.44;36.81
4410;BME280;2218;51.408;7.208;2023-05-18T06:15:43;100914.34;;;21.46;37.24
4410;BME280;2218;51.408;7.208;2023-05-18T06:18:10;100914.25;;;21.47;37.22
4410;BME280;2218;51.408;7.208;2023-05-18T06:20:38;100912.44;;;21.48;37.29
4410;BME280;2218;51.408;7.208;2023-05-18T06:23:05;100907.94;;;21.50;36.84
4410;BME280;2218;51.408;7.208;2023-05-18T06:25:43;100912.28;;;21.51;36.67
4410;BME280;2218;51.408;7.208;2023-05-18T06:28:20;100910.38;;;21.53;36.68
4410;BME280;2218;51.408;7.208;2023-05-18T06:30:53;100918.25;;;21.54;37.37
4410;BME280;2218;51.408;7.208;2023-05-18T06:33:44;100925.22;;;21.55;37.03
4410;BME280;2218;51.408;7.208;2023-05-18T06:36:11;100925.13;;;21.57;36.62
4410;BME280;2218;51.408;7.208;2023-05-18T06:38:38;100926.94;;;21.56;36.95
4410;BME280;2218;51.408;7.208;2023-05-18T06:41:05;100927.78;;;21.57;37.13
4410;BME280;2218;51.408;7.208;2023-05-18T06:43:32;100925.06;;;21.58;36.93
4410;BME280;2218;51.408;7.208;2023-05-18T06:46:20;100933.91;;;21.57;36.77
4410;BME280;2218;51.408;7.208;2023-05-18T06:48:51;100922.50;;;21.57;37.19
4410;BME280;2218;51.408;7.208;2023-05-18T06:51:18;100935.72;;;21.57;36.79
4410;BME280;2218;51.408;7.208;2023-05-18T06:53:46;100927.78;;;21.57;37.00
4410;BME280;2218;51.408;7.208;2023-05-18T06:56:13;100932.22;;;21.56;37.06
4410;BME280;2218;51.408;7.208;2023-05-18T06:58:43;100936.66;;;21.56;37.14
4410;BME280;2218;51.408;7.208;2023-05-18T07:01:10;100926.09;;;21.56;36.78
4410;BME280;2218;51.408;7.208;2023-05-18T07:03:38;100929.56;;;21.56;36.59
4410;BME280;2218;51.408;7.208;2023-05-18T07:06:05;100936.66;;;21.56;37.01
4410;BME280;2218;51.408;7.208;2023-05-18T07:08:33;100933.28;;;21.54;36.74
4410;BME280;2218;51.408;7.208;2023-05-18T07:11:01;100930.63;;;21.54;36.89
4410;BME280;2218;51.408;7.208;2023-05-18T07:13:29;100932.44;;;21.53;37.14
4410;BME280;2218;51.408;7.208;2023-05-18T07:15:56;100933.44;;;21.51;36.30
4410;BME280;2218;51.408;7.208;2023-05-18T07:18:23;100931.75;;;21.50;36.51
4410;BME280;2218;51.408;7.208;2023-05-18T07:20:52;100931.75;;;21.50;36.25
4410;BME280;2218;51.408;7.208;2023-05-18T07:23:19;100931.75;;;21.50;36.44
4410;BME280;2218;51.408;7.208;2023-05-18T07:25:47;100940.63;;;21.49;36.15
4410;BME280;2218;51.408;7.208;2023-05-18T07:28:14;100940.63;;;21.49;36.32
4410;BME280;2218;51.408;7.208;2023-05-18T07:30:41;100940.69;;;21.47;36.36
4410;BME280;2218;51.408;7.208;2023-05-18T07:33:08;100941.53;;;21.48;36.46
4410;BME280;2218;51.408;7.208;2023-05-18T07:35:35;100935.50;;;21.46;36.52
4410;BME280;2218;51.408;7.208;2023-05-18T07:38:03;100942.69;;;21.44;36.39
4410;BME280;2218;51.408;7.208;2023-05-18T07:40:30;100937.41;;;21.44;36.74
4410;BME280;2218;51.408;7.208;2023-05-18T07:42:57;100939.16;;;21.43;37.00
4410;BME280;2218;51.408;7.208;2023-05-18T07:45:24;100939.16;;;21.43;36.76
4410;BME280;2218;51.408;7.208;2023-05-18T07:47:51;100939.28;;;21.41;36.64
4410;BME280;2218;51.408;7.208;2023-05-18T07:50:18;100932.28;;;21.40;36.66
4410;BME280;2218;51.408;7.208;2023-05-18T07:52:45;100923.59;;;21.38;36.83
4410;BME280;2218;51.408;7.208;2023-05-18T07:55:14;100923.59;;;21.38;37.05
4410;BME280;2218;51.408;7.208;2023-05-18T07:57:41;100929.81;;;21.37;37.07
4410;BME280;2218;51.408;7.208;2023-05-18T08:00:09;100925.47;;;21.36;36.73
4410;BME280;2218;51.408;7.208;2023-05-18T08:02:39;100922.06;;;21.34;37.18
4410;BME280;2218;51.408;7.208;2023-05-18T08:05:07;100923.94;;;21.32;36.77
4410;BME280;2218;51.408;7.208;2023-05-18T08:07:35;100926.59;;;21.32;37.15
4410;BME280;2218;51.408;7.208;2023-05-18T08:10:03;100920.53;;;21.30;37.16
4410;BME280;2218;51.408;7.208;2023-05-18T08:12:32;100917.91;;;21.30;37.68
4410;BME280;2218;51.408;7.208;2023-05-18T08:14:59;100929.41;;;21.29;37.27
4410;BME280;2218;51.408;7.208;2023-05-18T08:17:26;100918.88;;;21.28;37.54
4410;BME280;2218;51.408;7.208;2023-05-18T08:19:53;100922.47;;;21.27;37.82
4410;BME280;2218;51.408;7.208;2023-05-18T08:22:21;100919.84;;;21.27;37.50
4410;BME280;2218;51.408;7.208;2023-05-18T08:24:48;100917.28;;;21.25;37.67
4410;BME280;2218;51.408;7.208;2023-05-18T08:27:15;100915.59;;;21.24;37.87
4410;BME280;2218;51.408;7.208;2023-05-18T08:29:44;100910.31;;;21.24;37.78
4410;BME280;2218;51.408;7.208;2023-05-18T08:32:11;100904.16;;;21.24;37.66
4410;BME280;2218;51.408;7.208;2023-05-18T08:34:38;100907.72;;;21.23;37.81
4410;BME280;2218;51.408;7.208;2023-05-18T08:37:04;100903.38;;;21.22;37.69
4410;BME280;2218;51.408;7.208;2023-05-18T08:39:32;100908.78;;;21.20;37.66
4410;BME280;2218;51.408;7.208;2023-05-18T08:42:03;100909.72;;;21.19;37.72
4410;BME280;2218;51.408;7.208;2023-05-18T08:44:38;100908.00;;;21.18;37.68
4410;BME280;2218;51.408;7.208;2023-05-18T08:47:09;100906.31;;;21.17;38.03
4410;BME280;2218;51.408;7.208;2023-05-18T08:49:39;100910.63;;;21.18;37.70
4410;BME280;2218;51.408;7.208;2023-05-18T08:52:08;100904.59;;;21.16;38.20
4410;BME280;2218;51.408;7.208;2023-05-18T08:54:36;100909.88;;;21.16;38.22
4410;BME280;2218;51.408;7.208;2023-05-18T08:57:07;100900.25;;;21.15;37.95
4410;BME280;2218;51.408;7.208;2023-05-18T08:59:39;100901.28;;;21.12;38.01
4410;BME280;2218;51.408;7.208;2023-05-18T09:02:09;100904.78;;;21.13;38.21
4410;BME280;2218;51.408;7.208;2023-05-18T09:04:37;100892.44;;;21.13;38.11
4410;BME280;2218;51.408;7.208;2023-05-18T09:07:06;100893.28;;;21.14;37.97
4410;BME280;2218;51.408;7.208;2023-05-18T09:09:35;100886.25;;;21.13;38.07
4410;BME280;2218;51.408;7.208;2023-05-18T09:12:05;100890.81;;;21.11;38.13
4410;BME280;2218;51.408;7.208;2023-05-18T09:14:32;100888.16;;;21.11;37.92
4410;BME280;2218;51.408;7.208;2023-05-18T09:16:59;100891.75;;;21.10;38.13
4410;BME280;2218;51.408;7.208;2023-05-18T09:19:28;100888.25;;;21.09;38.19
4410;BME280;2218;51.408;7.208;2023-05-18T09:21:55;100882.13;;;21.09;38.07
4410;BME280;2218;51.408;7.208;2023-05-18T09:24:22;100883.03;;;21.08;38.54
4410;BME280;2218;51.408;7.208;2023-05-18T09:26:49;100888.31;;;21.08;38.31
4410;BME280;2218;51.408;7.208;2023-05-18T09:29:19;100881.34;;;21.07;38.42
4410;BME280;2218;51.408;7.208;2023-05-18T09:31:47;100886.63;;;21.07;38.17
4410;BME280;2218;51.408;7.208;2023-05-18T09:34:15;100884.09;;;21.05;38.44
4410;BME280;2218;51.408;7.208;2023-05-18T09:36:49;100885.88;;;21.05;38.74
4410;BME280;2218;51.408;7.208;2023-05-18T09:39:17;100879.66;;;21.06;37.98
4410;BME280;2218;51.408;7.208;2023-05-18T09:41:44;100888.53;;;21.05;38.52
4410;BME280;2218;51.408;7.208;2023-05-18T09:44:11;100887.69;;;21.04;38.26
4410;BME280;2218;51.408;7.208;2023-05-18T09:46:39;100884.19;;;21.04;38.43
4410;BME280;2218;51.408;7.208;2023-05-18T09:49:07;100890.38;;;21.03;38.42
4410;BME280;2218;51.408;7.208;2023-05-18T09:51:35;100886.03;;;21.02;38.47
4410;BME280;2218;51.408;7.208;2023-05-18T09:54:06;100887.84;;;21.01;38.56
4410;BME280;2218;51.408;7.208;2023-05-18T09:56:36;100887.94;;;21.00;38.55
4410;BME280;2218;51.408;7.208;2023-05-18T09:59:11;100883.59;;;20.99;38.47
4410;BME280;2218;51.408;7.208;2023-05-18T10:01:55;100889.81;;;20.98;38.68
4410;BME280;2218;51.408;7.208;2023-05-18T10:04:22;100889.81;;;20.98;38.44
4410;BME280;2218;51.408;7.208;2023-05-18T10:07:00;100884.50;;;20.98;38.60
4410;BME280;2218;51.408;7.208;2023-05-18T10:09:29;100881.88;;;20.98;38.61
4410;BME280;2218;51.408;7.208;2023-05-18T10:11:56;100881.88;;;20.98;38.26
4410;BME280;2218;51.408;7.208;2023-05-18T10:14:23;100880.19;;;20.97;38.33
4410;BME280;2218;51.408;7.208;2023-05-18T10:16:51;100874.88;;;20.97;38.37
4410;BME280;2218;51.408;7.208;2023-05-18T10:19:19;100874.03;;;20.96;38.57
4410;BME280;2218;51.408;7.208;2023-05-18T10:21:48;100865.28;;;20.96;38.65
4410;BME280;2218;51.408;7.208;2023-05-18T10:24:19;100869.59;;;20.97;38.31
4410;BME280;2218;51.408;7.208;2023-05-18T10:26:49;100874.88;;;20.97;38.41
4410;BME280;2218;51.408;7.208;2023-05-18T10:29:17;100862.63;;;20.96;38.36
4410;BME280;2218;51.408;7.208;2023-05-18T10:31:45;100866.13;;;20.96;38.34
4410;BME280;2218;51.408;7.208;2023-05-18T10:34:15;100865.28;;;20.96;38.41
4410;BME280;2218;51.408;7.208;2023-05-18T10:36:43;100866.97;;;20.97;38.56
4410;BME280;2218;51.408;7.208;2023-05-18T10:39:10;100853.00;;;20.95;38.56
4410;BME280;2218;51.408;7.208;2023-05-18T10:41:40;100849.50;;;20.94;38.50
4410;BME280;2218;51.408;7.208;2023-05-18T10:44:09;100851.22;;;20.95;38.46
4410;BME280;2218;51.408;7.208;2023-05-18T10:46:37;100848.66;;;20.94;38.67
4410;BME280;2218;51.408;7.208;2023-05-18T10:49:06;100848.66;;;20.94;38.64
4410;BME280;2218;51.408;7.208;2023-05-18T10:51:40;100851.22;;;20.95;38.55
4410;BME280;2218;51.408;7.208;2023-05-18T10:54:11;100847.78;;;20.93;38.77
4410;BME280;2218;51.408;7.208;2023-05-18T10:56:43;100853.00;;;20.95;38.68
4410;BME280;2218;51.408;7.208;2023-05-18T10:59:14;100853.94;;;20.94;38.21
4410;BME280;2218;51.408;7.208;2023-05-18T11:01:44;100843.38;;;20.94;38.60
4410;BME280;2218;51.408;7.208;2023-05-18T11:04:13;100843.38;;;20.94;38.65
4410;BME280;2218;51.408;7.208;2023-05-18T11:06:40;100844.22;;;20.94;38.42
4410;BME280;2218;51.408;7.208;2023-05-18T11:09:08;100849.56;;;20.92;38.48
4410;BME280;2218;51.408;7.208;2023-05-18T11:11:52;100846.94;;;20.92;38.60
4410;BME280;2218;51.408;7.208;2023-05-18T11:14:29;100832.88;;;20.92;38.69
4410;BME280;2218;51.408;7.208;2023-05-18T11:17:21;100836.38;;;20.92;38.48
4410;BME280;2218;51.408;7.208;2023-05-18T11:20:13;100830.22;;;20.92;38.67
4410;BME280;2218;51.408;7.208;2023-05-18T11:23:01;100832.03;;;20.91;38.54
4410;BME280;2218;51.408;7.208;2023-05-18T11:25:42;100833.81;;;20.91;38.50
4410;BME280;2218;51.408;7.208;2023-05-18T11:28:12;100830.31;;;20.90;38.75
4410;BME280;2218;51.408;7.208;2023-05-18T11:30:52;100836.56;;;20.89;38.69
4410;BME280;2218;51.408;7.208;2023-05-18T11:33:26;100826.75;;;20.91;38.83
4410;BME280;2218;51.408;7.208;2023-05-18T11:36:05;100832.97;;;20.90;38.84
4410;BME280;2218;51.408;7.208;2023-05-18T11:38:49;100826.84;;;20.90;38.87
4410;BME280;2218;51.408;7.208;2023-05-18T11:41:32;100821.56;;;20.90;39.18
4410;BME280;2218;51.408;7.208;2023-05-18T11:44:04;100820.72;;;20.89;38.79
4410;BME280;2218;51.408;7.208;2023-05-18T11:46:36;100822.41;;;20.90;38.73
4410;BME280;2218;51.408;7.208;2023-05-18T11:49:03;100820.72;;;20.89;38.61
4410;BME280;2218;51.408;7.208;2023-05-18T11:51:32;100821.56;;;20.90;38.91
4410;BME280;2218;51.408;7.208;2023-05-18T11:53:59;100808.44;;;20.88;38.80
4410;BME280;2218;51.408;7.208;2023-05-18T11:56:30;100810.97;;;20.90;38.78
4410;BME280;2218;51.408;7.208;2023-05-18T11:59:12;100804.84;;;20.89;38.78
4410;BME280;2218;51.408;7.208;2023-05-18T12:01:42;100806.53;;;20.90;38.81
4410;BME280;2218;51.408;7.208;2023-05-18T12:04:10;100802.22;;;20.89;38.78
4410;BME280;2218;51.408;7.208;2023-05-18T12:06:37;100803.16;;;20.88;38.82
4410;BME280;2218;51.408;7.208;2023-05-18T12:09:06;100797.88;;;20.88;39.00
4410;BME280;2218;51.408;7.208;2023-05-18T12:11:34;100802.22;;;20.89;38.85
4410;BME280;2218;51.408;7.208;2023-05-18T12:14:02;100805.69;;;20.90;38.84
4410;BME280;2218;51.408;7.208;2023-05-18T12:16:30;100802.22;;;20.89;38.89
4410;BME280;2218;51.408;7.208;2023-05-18T12:18:59;100789.00;;;20.89;38.90
4410;BME280;2218;51.408;7.208;2023-05-18T12:21:25;100792.59;;;20.88;38.95
4410;BME280;2218;51.408;7.208;2023-05-18T12:23:57;100795.22;;;20.88;38.94
4410;BME280;2218;51.408;7.208;2023-05-18T12:26:24;100798.72;;;20.89;39.11
4410;BME280;2218;51.408;7.208;2023-05-18T12:28:53;100793.44;;;20.89;38.98
4410;BME280;2218;51.408;7.208;2023-05-18T12:31:20;100789.00;;;20.89;38.97
4410;BME280;2218;51.408;7.208;2023-05-18T12:33:48;100789.00;;;20.89;38.93
4410;BME280;2218;51.408;7.208;2023-05-18T12:36:17;100784.66;;;20.88;38.82
4410;BME280;2218;51.408;7.208;2023-05-18T12:38:47;100783.72;;;20.89;38.98
4410;BME280;2218;51.408;7.208;2023-05-18T12:41:23;100784.56;;;20.90;39.08
4410;BME280;2218;51.408;7.208;2023-05-18T12:43:51;100779.28;;;20.90;38.98
4410;BME280;2218;51.408;7.208;2023-05-18T12:46:21;100775.78;;;20.89;38.95
4410;BME280;2218;51.408;7.208;2023-05-18T12:48:58;100769.66;;;20.89;39.08
4410;BME280;2218;51.408;7.208;2023-05-18T12:51:33;100775.78;;;20.89;38.93
4410;BME280;2218;51.408;7.208;2023-05-18T12:54:00;100776.63;;;20.90;38.97
4410;BME280;2218;51.408;7.208;2023-05-18T12:56:49;100776.72;;;20.88;39.09
4410;BME280;2218;51.408;7.208;2023-05-18T12:59:18;100769.66;;;20.89;38.83
4410;BME280;2218;51.408;7.208;2023-05-18T13:01:45;100780.28;;;20.87;39.02
4410;BME280;2218;51.408;7.208;2023-05-18T13:04:12;100762.75;;;20.86;39.08
4410;BME280;2218;51.408;7.208;2023-05-18T13:06:42;100763.59;;;20.87;38.91
4410;BME280;2218;51.408;7.208;2023-05-18T13:09:11;100754.72;;;20.88;39.25
4410;BME280;2218;51.408;7.208;2023-05-18T13:11:38;100760.88;;;20.88;39.04
4410;BME280;2218;51.408;7.208;2023-05-18T13:14:07;100759.16;;;20.87;39.00
4410;BME280;2218;51.408;7.208;2023-05-18T13:16:43;100754.66;;;20.89;39.08
4410;BME280;2218;51.408;7.208;2023-05-18T13:19:15;100767.00;;;20.89;39.16
4410;BME280;2218;51.408;7.208;2023-05-18T13:21:44;100751.16;;;20.89;38.90
4410;BME280;2218;51.408;7.208;2023-05-18T13:24:12;100748.50;;;20.89;39.15